sensor_id;sensor_type;location;lat;lon;timestamp;pressure;altitude;pressure_sealevel;temperature
73937;BMP180;59249;59.736;30.568;2024-02-23T00:00:19;100275.00;;;2.60
73937;BMP180;59249;59.736;30.568;2024-02-23T00:02:56;100277.00;;;2.60
73937;BMP180;59249;59.736;30.568;2024-02-23T00:05:29;100278.00;;;2.60
73937;BMP180;59249;59.736;30.568;2024-02-23T00:07:59;100269.00;;;2.60
73937;BMP180;59249;59.736;30.568;2024-02-23T00:10:31;100271.00;;;2.60
73937;BMP180;59249;59.736;30.568;2024-02-23T00:13:02;100274.00;;;2.50
73937;BMP180;59249;59.736;30.568;2024-02-23T00:15:33;100267.00;;;2.50
73937;BMP180;59249;59.736;30.568;2024-02-23T00:18:04;100270.00;;;2.60
73937;BMP180;59249;59.736;30.568;2024-02-23T00:20:37;100266.00;;;2.60
73937;BMP180;59249;59.736;30.568;2024-02-23T00:23:07;100275.00;;;2.60
73937;BMP180;59249;59.736;30.568;2024-02-23T00:25:43;100268.00;;;2.60
73937;BMP180;59249;59.736;30.568;2024-02-23T00:28:22;100261.00;;;2.60
73937;BMP180;59249;59.736;30.568;2024-02-23T00:30:58;100263.00;;;2.60
73937;BMP180;59249;59.736;30.568;2024-02-23T00:33:40;100260.00;;;2.50
73937;BMP180;59249;59.736;30.568;2024-02-23T00:36:18;100262.00;;;2.60
73937;BMP180;59249;59.736;30.568;2024-02-23T00:38:51;100252.00;;;2.50
73937;BMP180;59249;59.736;30.568;2024-02-23T00:41:29;100261.00;;;2.50
73937;BMP180;59249;59.736;30.568;2024-02-23T00:44:04;100253.00;;;2.60
73937;BMP180;59249;59.736;30.568;2024-02-23T00:46:41;100259.00;;;2.60
73937;BMP180;59249;59.736;30.568;2024-02-23T00:49:24;100256.00;;;2.60
73937;BMP180;59249;59.736;30.568;2024-02-23T00:52:01;100245.00;;;2.60
73937;BMP180;59249;59.736;30.568;2024-02-23T00:54:36;100254.00;;;2.60
73937;BMP180;59249;59.736;30.568;2024-02-23T00:57:06;100253.00;;;2.50
73937;BMP180;59249;59.736;30.568;2024-02-23T00:59:46;100260.00;;;2.60
73937;BMP180;59249;59.736;30.568;2024-02-23T01:02:16;100256.00;;;2.50
73937;BMP180;59249;59.736;30.568;2024-02-23T01:04:51;100256.00;;;2.60
73937;BMP180;59249;59.736;30.568;2024-02-23T01:07:31;100257.00;;;2.60
73937;BMP180;59249;59.736;30.568;2024-02-23T01:10:02;100257.00;;;2.60
73937;BMP180;59249;59.736;30.568;2024-02-23T01:12:39;100251.00;;;2.60
73937;BMP180;59249;59.736;30.568;2024-02-23T01:15:16;100253.00;;;2.60
73937;BMP180;59249;59.736;30.568;2024-02-23T01:17:49;100254.00;;;2.60
73937;BMP180;59249;59.736;30.568;2024-02-23T01:20:24;100256.00;;;2.60
73937;BMP180;59249;59.736;30.568;2024-02-23T01:22:55;100250.00;;;2.60
73937;BMP180;59249;59.736;30.568;2024-02-23T01:25:25;100254.00;;;2.60
73937;BMP180;59249;59.736;30.568;2024-02-23T01:27:54;100260.00;;;2.50
73937;BMP180;59249;59.736;30.568;2024-02-23T01:30:33;100255.00;;;2.60
73937;BMP180;59249;59.736;30.568;2024-02-23T01:33:15;100257.00;;;2.60
73937;BMP180;59249;59.736;30.568;2024-02-23T01:35:53;100250.00;;;2.70
73937;BMP180;59249;59.736;30.568;2024-02-23T01:38:24;100254.00;;;2.60
73937;BMP180;59249;59.736;30.568;2024-02-23T01:41:02;100246.00;;;2.60
73937;BMP180;59249;59.736;30.568;2024-02-23T01:43:52;100240.00;;;2.60
73937;BMP180;59249;59.736;30.568;2024-02-23T01:46:23;100235.00;;;2.50
73937;BMP180;59249;59.736;30.568;2024-02-23T01:49:02;100237.00;;;2.60
73937;BMP180;59249;59.736;30.568;2024-02-23T01:51:54;100239.00;;;2.60
73937;BMP180;59249;59.736;30.568;2024-02-23T01:54:31;100244.00;;;2.60
73937;BMP180;59249;59.736;30.568;2024-02-23T01:57:01;100238.00;;;2.60
73937;BMP180;59249;59.736;30.568;2024-02-23T01:59:54;100240.00;;;2.60
73937;BMP180;59249;59.736;30.568;2024-02-23T02:02:24;100244.00;;;2.60
73937;BMP180;59249;59.736;30.568;2024-02-23T02:05:02;100247.00;;;2.60
73937;BMP180;59249;59.736;30.568;2024-02-23T02:07:57;100249.00;;;2.60
73937;BMP180;59249;59.736;30.568;2024-02-23T02:10:42;100237.00;;;2.60
73937;BMP180;59249;59.736;30.568;2024-02-23T02:13:17;100232.00;;;2.60
73937;BMP180;59249;59.736;30.568;2024-02-23T02:15:47;100227.00;;;2.60
73937;BMP180;59249;59.736;30.568;2024-02-23T02:18:16;100221.00;;;2.60
73937;BMP180;59249;59.736;30.568;2024-02-23T02:20:51;100219.00;;;2.60
73937;BMP180;59249;59.736;30.568;2024-02-23T02:23:30;100228.00;;;2.60
73937;BMP180;59249;59.736;30.568;2024-02-23T02:26:01;100214.00;;;2.60
73937;BMP180;59249;59.736;30.568;2024-02-23T02:28:31;100221.00;;;2.60
73937;BMP180;59249;59.736;30.568;2024-02-23T02:31:05;100205.00;;;2.50
73937;BMP180;59249;59.736;30.568;2024-02-23T02:33:40;100219.00;;;2.60
73937;BMP180;59249;59.736;30.568;2024-02-23T02:36:10;100216.00;;;2.60
73937;BMP180;59249;59.736;30.568;2024-02-23T02:38:41;100228.00;;;2.60
73937;BMP180;59249;59.736;30.568;2024-02-23T02:41:10;100230.00;;;2.60
73937;BMP180;59249;59.736;30.568;2024-02-23T02:43:47;100225.00;;;2.60
73937;BMP180;59249;59.736;30.568;2024-02-23T02:46:16;100223.00;;;2.50
73937;BMP180;59249;59.736;30.568;2024-02-23T02:48:45;100225.00;;;2.60
73937;BMP180;59249;59.736;30.568;2024-02-23T02:51:17;100219.00;;;2.50
73937;BMP180;59249;59.736;30.568;2024-02-23T02:53:50;100223.00;;;2.50
73937;BMP180;59249;59.736;30.568;2024-02-23T02:56:19;100229.00;;;2.60
73937;BMP180;59249;59.736;30.568;2024-02-23T02:58:49;100240.00;;;2.50
73937;BMP180;59249;59.736;30.568;2024-02-23T03:01:18;100229.00;;;2.60
73937;BMP180;59249;59.736;30.568;2024-02-23T03:03:48;100225.00;;;2.60
73937;BMP180;59249;59.736;30.568;2024-02-23T03:06:18;100230.00;;;2.60
73937;BMP180;59249;59.736;30.568;2024-02-23T03:08:51;100222.00;;;2.60
73937;BMP180;59249;59.736;30.568;2024-02-23T03:11:25;100216.00;;;2.60
73937;BMP180;59249;59.736;30.568;2024-02-23T03:13:58;100220.00;;;2.60
73937;BMP180;59249;59.736;30.568;2024-02-23T03:16:33;100225.00;;;2.60
73937;BMP180;59249;59.736;30.568;2024-02-23T03:19:05;100207.00;;;2.60
73937;BMP180;59249;59.736;30.568;2024-02-23T03:21:36;100222.00;;;2.70
73937;BMP180;59249;59.736;30.568;2024-02-23T03:24:09;100213.00;;;2.70
73937;BMP180;59249;59.736;30.568;2024-02-23T03:26:42;100215.00;;;2.70
73937;BMP180;59249;59.736;30.568;2024-02-23T03:29:12;100213.00;;;2.70
73937;BMP180;59249;59.736;30.568;2024-02-23T03:31:47;100220.00;;;2.70
73937;BMP180;59249;59.736;30.568;2024-02-23T03:34:16;100222.00;;;2.70
73937;BMP180;59249;59.736;30.568;2024-02-23T03:36:45;100217.00;;;2.70
73937;BMP180;59249;59.736;30.568;2024-02-23T03:39:16;100200.00;;;2.70
73937;BMP180;59249;59.736;30.568;2024-02-23T03:41:47;100211.00;;;2.60
73937;BMP180;59249;59.736;30.568;2024-02-23T03:44:26;100204.00;;;2.70
73937;BMP180;59249;59.736;30.568;2024-02-23T03:47:02;100204.00;;;2.70
73937;BMP180;59249;59.736;30.568;2024-02-23T03:49:33;100203.00;;;2.70
73937;BMP180;59249;59.736;30.568;2024-02-23T03:52:04;100185.00;;;2.60
73937;BMP180;59249;59.736;30.568;2024-02-23T03:54:36;100199.00;;;2.60
73937;BMP180;59249;59.736;30.568;2024-02-23T03:57:08;100199.00;;;2.60
73937;BMP180;59249;59.736;30.568;2024-02-23T03:59:38;100181.00;;;2.60
73937;BMP180;59249;59.736;30.568;2024-02-23T04:02:08;100200.00;;;2.70
73937;BMP180;59249;59.736;30.568;2024-02-23T04:04:37;100195.00;;;2.70
73937;BMP180;59249;59.736;30.568;2024-02-23T04:07:06;100197.00;;;2.60
73937;BMP180;59249;59.736;30.568;2024-02-23T04:09:36;100201.00;;;2.60
73937;BMP180;59249;59.736;30.568;2024-02-23T04:12:06;100205.00;;;2.60
73937;BMP180;59249;59.736;30.568;2024-02-23T04:14:43;100191.00;;;2.60
73937;BMP180;59249;59.736;30.568;2024-02-23T04:17:12;100200.00;;;2.50
73937;BMP180;59249;59.736;30.568;2024-02-23T04:19:41;100198.00;;;2.50
73937;BMP180;59249;59.736;30.568;2024-02-23T04:22:11;100195.00;;;2.60
73937;BMP180;59249;59.736;30.568;2024-02-23T04:24:41;100192.00;;;2.50
73937;BMP180;59249;59.736;30.568;2024-02-23T04:27:10;100195.00;;;2.60
73937;BMP180;59249;59.736;30.568;2024-02-23T04:29:40;100201.00;;;2.60
73937;BMP180;59249;59.736;30.568;2024-02-23T04:32:15;100190.00;;;2.70
73937;BMP180;59249;59.736;30.568;2024-02-23T04:34:44;100182.00;;;2.70
73937;BMP180;59249;59.736;30.568;2024-02-23T04:37:21;100182.00;;;2.60
73937;BMP180;59249;59.736;30.568;2024-02-23T04:39:53;100184.00;;;2.70
73937;BMP180;59249;59.736;30.568;2024-02-23T04:42:22;100162.00;;;2.60
73937;BMP180;59249;59.736;30.568;2024-02-23T04:44:53;100165.00;;;2.60
73937;BMP180;59249;59.736;30.568;2024-02-23T04:47:22;100172.00;;;2.60
73937;BMP180;59249;59.736;30.568;2024-02-23T04:49:53;100162.00;;;2.70
73937;BMP180;59249;59.736;30.568;2024-02-23T04:52:22;100161.00;;;2.70
73937;BMP180;59249;59.736;30.568;2024-02-23T04:54:52;100176.00;;;2.70
73937;BMP180;59249;59.736;30.568;2024-02-23T04:57:22;100168.00;;;2.70
73937;BMP180;59249;59.736;30.568;2024-02-23T04:59:52;100171.00;;;2.70
73937;BMP180;59249;59.736;30.568;2024-02-23T05:02:22;100173.00;;;2.70
73937;BMP180;59249;59.736;30.568;2024-02-23T05:04:51;100173.00;;;2.70
73937;BMP180;59249;59.736;30.568;2024-02-23T05:07:21;100176.00;;;2.70
73937;BMP180;59249;59.736;30.568;2024-02-23T05:09:51;100173.00;;;2.70
73937;BMP180;59249;59.736;30.568;2024-02-23T05:12:21;100163.00;;;2.80
73937;BMP180;59249;59.736;30.568;2024-02-23T05:14:52;100170.00;;;2.70
73937;BMP180;59249;59.736;30.568;2024-02-23T05:17:24;100172.00;;;2.80
73937;BMP180;59249;59.736;30.568;2024-02-23T05:19:53;100161.00;;;2.80
73937;BMP180;59249;59.736;30.568;2024-02-23T05:22:24;100159.00;;;2.90
73937;BMP180;59249;59.736;30.568;2024-02-23T05:24:54;100161.00;;;2.80
73937;BMP180;59249;59.736;30.568;2024-02-23T05:27:25;100160.00;;;2.80
73937;BMP180;59249;59.736;30.568;2024-02-23T05:30:08;100168.00;;;2.80
73937;BMP180;59249;59.736;30.568;2024-02-23T05:32:39;100165.00;;;2.70
73937;BMP180;59249;59.736;30.568;2024-02-23T05:35:10;100162.00;;;2.70
73937;BMP180;59249;59.736;30.568;2024-02-23T05:37:44;100165.00;;;2.80
73937;BMP180;59249;59.736;30.568;2024-02-23T05:40:25;100165.00;;;2.80
73937;BMP180;59249;59.736;30.568;2024-02-23T05:42:54;100166.00;;;2.90
73937;BMP180;59249;59.736;30.568;2024-02-23T05:45:26;100164.00;;;2.80
73937;BMP180;59249;59.736;30.568;2024-02-23T05:47:57;100162.00;;;2.80
73937;BMP180;59249;59.736;30.568;2024-02-23T05:50:35;100164.00;;;2.90
73937;BMP180;59249;59.736;30.568;2024-02-23T05:53:10;100165.00;;;2.90
73937;BMP180;59249;59.736;30.568;2024-02-23T05:55:51;100150.00;;;2.90
73937;BMP180;59249;59.736;30.568;2024-02-23T05:58:20;100159.00;;;2.90
73937;BMP180;59249;59.736;30.568;2024-02-23T06:00:55;100153.00;;;2.90
73937;BMP180;59249;59.736;30.568;2024-02-23T06:03:25;100144.00;;;3.00
73937;BMP180;59249;59.736;30.568;2024-02-23T06:05:55;100153.00;;;3.00
73937;BMP180;59249;59.736;30.568;2024-02-23T06:08:29;100156.00;;;3.00
73937;BMP180;59249;59.736;30.568;2024-02-23T06:11:00;100163.00;;;3.00
73937;BMP180;59249;59.736;30.568;2024-02-23T06:13:33;100143.00;;;3.00
73937;BMP180;59249;59.736;30.568;2024-02-23T06:16:03;100151.00;;;3.00
73937;BMP180;59249;59.736;30.568;2024-02-23T06:18:33;100146.00;;;3.10
73937;BMP180;59249;59.736;30.568;2024-02-23T06:21:13;100155.00;;;3.10
73937;BMP180;59249;59.736;30.568;2024-02-23T06:23:47;100150.00;;;3.20
73937;BMP180;59249;59.736;30.568;2024-02-23T06:26:21;100146.00;;;3.00
73937;BMP180;59249;59.736;30.568;2024-02-23T06:28:50;100152.00;;;3.10
73937;BMP180;59249;59.736;30.568;2024-02-23T06:31:19;100154.00;;;3.20
73937;BMP180;59249;59.736;30.568;2024-02-23T06:33:48;100161.00;;;3.20
73937;BMP180;59249;59.736;30.568;2024-02-23T06:36:20;100167.00;;;3.10
73937;BMP180;59249;59.736;30.568;2024-02-23T06:38:48;100166.00;;;3.20
73937;BMP180;59249;59.736;30.568;2024-02-23T06:41:17;100162.00;;;3.20
73937;BMP180;59249;59.736;30.568;2024-02-23T06:43:48;100167.00;;;3.30
73937;BMP180;59249;59.736;30.568;2024-02-23T06:46:20;100164.00;;;3.20
73937;BMP180;59249;59.736;30.568;2024-02-23T06:48:50;100166.00;;;3.20
73937;BMP180;59249;59.736;30.568;2024-02-23T06:51:22;100168.00;;;3.20
73937;BMP180;59249;59.736;30.568;2024-02-23T06:53:51;100170.00;;;3.20
73937;BMP180;59249;59.736;30.568;2024-02-23T06:56:24;100169.00;;;3.20
73937;BMP180;59249;59.736;30.568;2024-02-23T06:58:56;100165.00;;;3.30
73937;BMP180;59249;59.736;30.568;2024-02-23T07:01:26;100164.00;;;3.30
73937;BMP180;59249;59.736;30.568;2024-02-23T07:03:58;100155.00;;;3.20
73937;BMP180;59249;59.736;30.568;2024-02-23T07:06:31;100174.00;;;3.20
73937;BMP180;59249;59.736;30.568;2024-02-23T07:09:07;100175.00;;;3.30
73937;BMP180;59249;59.736;30.568;2024-02-23T07:11:44;100171.00;;;3.30
73937;BMP180;59249;59.736;30.568;2024-02-23T07:14:17;100167.00;;;3.20
73937;BMP180;59249;59.736;30.568;2024-02-23T07:16:49;100159.00;;;3.30
73937;BMP180;59249;59.736;30.568;2024-02-23T07:19:31;100153.00;;;3.30
73937;BMP180;59249;59.736;30.568;2024-02-23T07:22:09;100165.00;;;3.40
73937;BMP180;59249;59.736;30.568;2024-02-23T07:24:43;100148.00;;;3.40
73937;BMP180;59249;59.736;30.568;2024-02-23T07:27:24;100151.00;;;3.40
73937;BMP180;59249;59.736;30.568;2024-02-23T07:30:09;100162.00;;;3.50
73937;BMP180;59249;59.736;30.568;2024-02-23T07:32:49;100152.00;;;3.40
73937;BMP180;59249;59.736;30.568;2024-02-23T07:35:20;100143.00;;;3.50
73937;BMP180;59249;59.736;30.568;2024-02-23T07:37:55;100144.00;;;3.70
73937;BMP180;59249;59.736;30.568;2024-02-23T07:40:29;100146.00;;;3.70
73937;BMP180;59249;59.736;30.568;2024-02-23T07:43:02;100135.00;;;3.90
73937;BMP180;59249;59.736;30.568;2024-02-23T07:45:34;100136.00;;;4.00
73937;BMP180;59249;59.736;30.568;2024-02-23T07:48:09;100141.00;;;4.10
73937;BMP180;59249;59.736;30.568;2024-02-23T07:50:40;100147.00;;;4.20
73937;BMP180;59249;59.736;30.568;2024-02-23T07:53:11;100151.00;;;4.30
73937;BMP180;59249;59.736;30.568;2024-02-23T07:55:50;100141.00;;;4.30
73937;BMP180;59249;59.736;30.568;2024-02-23T07:58:19;100155.00;;;4.20
73937;BMP180;59249;59.736;30.568;2024-02-23T08:00:49;100165.00;;;4.30
73937;BMP180;59249;59.736;30.568;2024-02-23T08:03:21;100178.00;;;4.20
73937;BMP180;59249;59.736;30.568;2024-02-23T08:05:54;100175.00;;;4.10
73937;BMP180;59249;59.736;30.568;2024-02-23T08:08:31;100171.00;;;4.10
73937;BMP180;59249;59.736;30.568;2024-02-23T08:11:02;100172.00;;;4.20
73937;BMP180;59249;59.736;30.568;2024-02-23T08:13:31;100182.00;;;4.20
73937;BMP180;59249;59.736;30.568;2024-02-23T08:16:02;100186.00;;;4.10
73937;BMP180;59249;59.736;30.568;2024-02-23T08:18:33;100187.00;;;4.10
73937;BMP180;59249;59.736;30.568;2024-02-23T08:21:05;100183.00;;;4.10
73937;BMP180;59249;59.736;30.568;2024-02-23T08:23:34;100191.00;;;4.10
73937;BMP180;59249;59.736;30.568;2024-02-23T08:26:05;100184.00;;;4.00
73937;BMP180;59249;59.736;30.568;2024-02-23T08:28:34;100178.00;;;4.10
73937;BMP180;59249;59.736;30.568;2024-02-23T08:31:05;100174.00;;;4.10
73937;BMP180;59249;59.736;30.568;2024-02-23T08:33:40;100173.00;;;4.00
73937;BMP180;59249;59.736;30.568;2024-02-23T08:36:14;100182.00;;;4.10
73937;BMP180;59249;59.736;30.568;2024-02-23T08:38:44;100172.00;;;4.10
73937;BMP180;59249;59.736;30.568;2024-02-23T08:41:15;100182.00;;;4.10
73937;BMP180;59249;59.736;30.568;2024-02-23T08:43:46;100189.00;;;4.10
73937;BMP180;59249;59.736;30.568;2024-02-23T08:46:17;100183.00;;;4.20
73937;BMP180;59249;59.736;30.568;2024-02-23T08:48:51;100182.00;;;4.20
73937;BMP180;59249;59.736;30.568;2024-02-23T08:51:26;100184.00;;;4.10
73937;BMP180;59249;59.736;30.568;2024-02-23T08:53:55;100188.00;;;4.20
73937;BMP180;59249;59.736;30.568;2024-02-23T08:56:36;100191.00;;;4.20
73937;BMP180;59249;59.736;30.568;2024-02-23T08:59:10;100186.00;;;4.10
73937;BMP180;59249;59.736;30.568;2024-02-23T09:01:42;100180.00;;;4.10
73937;BMP180;59249;59.736;30.568;2024-02-23T09:04:11;100183.00;;;4.10
73937;BMP180;59249;59.736;30.568;2024-02-23T09:06:41;100177.00;;;4.10
73937;BMP180;59249;59.736;30.568;2024-02-23T09:09:13;100181.00;;;4.20
73937;BMP180;59249;59.736;30.568;2024-02-23T09:11:44;100192.00;;;4.10
73937;BMP180;59249;59.736;30.568;2024-02-23T09:14:13;100187.00;;;4.20
73937;BMP180;59249;59.736;30.568;2024-02-23T09:16:44;100177.00;;;4.20
73937;BMP180;59249;59.736;30.568;2024-02-23T09:19:18;100176.00;;;4.20
73937;BMP180;59249;59.736;30.568;2024-02-23T09:21:48;100183.00;;;4.20
73937;BMP180;59249;59.736;30.568;2024-02-23T09:24:17;100179.00;;;4.40
73937;BMP180;59249;59.736;30.568;2024-02-23T09:26:57;100184.00;;;4.40
73937;BMP180;59249;59.736;30.568;2024-02-23T09:29:26;100186.00;;;4.30
73937;BMP180;59249;59.736;30.568;2024-02-23T09:31:57;100186.00;;;4.40
73937;BMP180;59249;59.736;30.568;2024-02-23T09:34:29;100187.00;;;4.40
73937;BMP180;59249;59.736;30.568;2024-02-23T09:36:59;100191.00;;;4.40
73937;BMP180;59249;59.736;30.568;2024-02-23T09:39:28;100193.00;;;4.40
73937;BMP180;59249;59.736;30.568;2024-02-23T09:41:59;100181.00;;;4.50
73937;BMP180;59249;59.736;30.568;2024-02-23T09:44:32;100172.00;;;4.40
73937;BMP180;59249;59.736;30.568;2024-02-23T09:47:04;100177.00;;;4.50
73937;BMP180;59249;59.736;30.568;2024-02-23T09:49:38;100179.00;;;4.60
73937;BMP180;59249;59.736;30.568;2024-02-23T09:52:12;100162.00;;;4.60
73937;BMP180;59249;59.736;30.568;2024-02-23T09:54:42;100173.00;;;4.70
73937;BMP180;59249;59.736;30.568;2024-02-23T09:57:11;100162.00;;;4.80
73937;BMP180;59249;59.736;30.568;2024-02-23T09:59:41;100165.00;;;4.80
73937;BMP180;59249;59.736;30.568;2024-02-23T10:02:15;100149.00;;;4.70
73937;BMP180;59249;59.736;30.568;2024-02-23T10:04:45;100158.00;;;4.80
73937;BMP180;59249;59.736;30.568;2024-02-23T10:07:18;100147.00;;;4.80
73937;BMP180;59249;59.736;30.568;2024-02-23T10:09:52;100153.00;;;4.90
73937;BMP180;59249;59.736;30.568;2024-02-23T10:12:23;100155.00;;;4.90
73937;BMP180;59249;59.736;30.568;2024-02-23T10:14:54;100150.00;;;5.00
73937;BMP180;59249;59.736;30.568;2024-02-23T10:17:26;100157.00;;;5.00
73937;BMP180;59249;59.736;30.568;2024-02-23T10:19:59;100158.00;;;5.00
73937;BMP180;59249;59.736;30.568;2024-02-23T10:22:32;100158.00;;;5.00
73937;BMP180;59249;59.736;30.568;2024-02-23T10:25:08;100160.00;;;5.00
73937;BMP180;59249;59.736;30.568;2024-02-23T10:27:41;100150.00;;;4.90
73937;BMP180;59249;59.736;30.568;2024-02-23T10:30:11;100160.00;;;4.90
73937;BMP180;59249;59.736;30.568;2024-02-23T10:32:45;100156.00;;;4.90
73937;BMP180;59249;59.736;30.568;2024-02-23T10:35:15;100156.00;;;5.00
73937;BMP180;59249;59.736;30.568;2024-02-23T10:37:48;100154.00;;;5.00
73937;BMP180;59249;59.736;30.568;2024-02-23T10:40:19;100145.00;;;5.10
73937;BMP180;59249;59.736;30.568;2024-02-23T10:42:50;100150.00;;;5.10
73937;BMP180;59249;59.736;30.568;2024-02-23T10:45:22;100150.00;;;5.10
73937;BMP180;59249;59.736;30.568;2024-02-23T10:47:54;100147.00;;;5.10
73937;BMP180;59249;59.736;30.568;2024-02-23T10:50:25;100145.00;;;5.10
73937;BMP180;59249;59.736;30.568;2024-02-23T10:52:55;100166.00;;;5.10
73937;BMP180;59249;59.736;30.568;2024-02-23T10:55:30;100155.00;;;5.20
73937;BMP180;59249;59.736;30.568;2024-02-23T10:58:02;100147.00;;;5.10
73937;BMP180;59249;59.736;30.568;2024-02-23T11:00:31;100157.00;;;5.10
73937;BMP180;59249;59.736;30.568;2024-02-23T11:03:02;100159.00;;;5.10
73937;BMP180;59249;59.736;30.568;2024-02-23T11:05:33;100150.00;;;5.10
73937;BMP180;59249;59.736;30.568;2024-02-23T11:08:08;100158.00;;;5.00
73937;BMP180;59249;59.736;30.568;2024-02-23T11:10:42;100159.00;;;5.00
73937;BMP180;59249;59.736;30.568;2024-02-23T11:13:11;100155.00;;;5.10
73937;BMP180;59249;59.736;30.568;2024-02-23T11:15:42;100150.00;;;5.00
73937;BMP180;59249;59.736;30.568;2024-02-23T11:18:23;100148.00;;;5.20
73937;BMP180;59249;59.736;30.568;2024-02-23T11:20:59;100147.00;;;5.10
73937;BMP180;59249;59.736;30.568;2024-02-23T11:23:40;100146.00;;;5.10
73937;BMP180;59249;59.736;30.568;2024-02-23T11:26:11;100155.00;;;5.10
73937;BMP180;59249;59.736;30.568;2024-02-23T11:28:43;100149.00;;;5.30
73937;BMP180;59249;59.736;30.568;2024-02-23T11:31:19;100147.00;;;5.10
73937;BMP180;59249;59.736;30.568;2024-02-23T11:33:52;100146.00;;;5.10
73937;BMP180;59249;59.736;30.568;2024-02-23T11:36:35;100145.00;;;5.20
73937;BMP180;59249;59.736;30.568;2024-02-23T11:39:10;100142.00;;;5.10
73937;BMP180;59249;59.736;30.568;2024-02-23T11:41:57;100135.00;;;5.20
73937;BMP180;59249;59.736;30.568;2024-02-23T11:44:27;100131.00;;;5.20
73937;BMP180;59249;59.736;30.568;2024-02-23T11:46:59;100143.00;;;5.20
73937;BMP180;59249;59.736;30.568;2024-02-23T11:49:32;100142.00;;;5.00
73937;BMP180;59249;59.736;30.568;2024-02-23T11:52:03;100141.00;;;4.90
73937;BMP180;59249;59.736;30.568;2024-02-23T11:54:34;100144.00;;;4.90
73937;BMP180;59249;59.736;30.568;2024-02-23T11:57:09;100141.00;;;5.00
73937;BMP180;59249;59.736;30.568;2024-02-23T11:59:41;100135.00;;;5.10
73937;BMP180;59249;59.736;30.568;2024-02-23T12:02:14;100130.00;;;5.10
73937;BMP180;59249;59.736;30.568;2024-02-23T12:04:49;100142.00;;;5.10
73937;BMP180;59249;59.736;30.568;2024-02-23T12:07:19;100132.00;;;5.10
73937;BMP180;59249;59.736;30.568;2024-02-23T12:09:48;100129.00;;;5.20
73937;BMP180;59249;59.736;30.568;2024-02-23T12:12:20;100110.00;;;5.20
73937;BMP180;59249;59.736;30.568;2024-02-23T12:14:50;100122.00;;;5.10
73937;BMP180;59249;59.736;30.568;2024-02-23T12:17:21;100115.00;;;5.10
73937;BMP180;59249;59.736;30.568;2024-02-23T12:19:59;100126.00;;;5.00
73937;BMP180;59249;59.736;30.568;2024-02-23T12:22:34;100110.00;;;5.10
73937;BMP180;59249;59.736;30.568;2024-02-23T12:25:14;100109.00;;;5.00
73937;BMP180;59249;59.736;30.568;2024-02-23T12:27:54;100106.00;;;5.10
73937;BMP180;59249;59.736;30.568;2024-02-23T12:30:24;100101.00;;;5.20
73937;BMP180;59249;59.736;30.568;2024-02-23T12:33:07;100113.00;;;5.20
73937;BMP180;59249;59.736;30.568;2024-02-23T12:35:44;100108.00;;;5.20
73937;BMP180;59249;59.736;30.568;2024-02-23T12:38:18;100103.00;;;5.30
73937;BMP180;59249;59.736;30.568;2024-02-23T12:40:50;100104.00;;;5.30
73937;BMP180;59249;59.736;30.568;2024-02-23T12:43:22;100118.00;;;5.20
73937;BMP180;59249;59.736;30.568;2024-02-23T12:45:54;100123.00;;;5.30
73937;BMP180;59249;59.736;30.568;2024-02-23T12:48:25;100116.00;;;5.20
73937;BMP180;59249;59.736;30.568;2024-02-23T12:50:57;100117.00;;;5.30
73937;BMP180;59249;59.736;30.568;2024-02-23T12:53:33;100113.00;;;5.40
73937;BMP180;59249;59.736;30.568;2024-02-23T12:56:05;100109.00;;;5.30
73937;BMP180;59249;59.736;30.568;2024-02-23T12:58:38;100102.00;;;5.20
73937;BMP180;59249;59.736;30.568;2024-02-23T13:01:09;100106.00;;;5.20
73937;BMP180;59249;59.736;30.568;2024-02-23T13:03:55;100107.00;;;5.20
73937;BMP180;59249;59.736;30.568;2024-02-23T13:06:34;100109.00;;;5.10
73937;BMP180;59249;59.736;30.568;2024-02-23T13:09:08;100102.00;;;5.10
73937;BMP180;59249;59.736;30.568;2024-02-23T13:11:42;100099.00;;;5.00
73937;BMP180;59249;59.736;30.568;2024-02-23T13:14:15;100110.00;;;5.00
73937;BMP180;59249;59.736;30.568;2024-02-23T13:16:44;100120.00;;;4.90
73937;BMP180;59249;59.736;30.568;2024-02-23T13:19:13;100110.00;;;4.90
73937;BMP180;59249;59.736;30.568;2024-02-23T13:21:44;100106.00;;;4.90
73937;BMP180;59249;59.736;30.568;2024-02-23T13:24:13;100110.00;;;4.90
73937;BMP180;59249;59.736;30.568;2024-02-23T13:26:42;100111.00;;;4.90
73937;BMP180;59249;59.736;30.568;2024-02-23T13:29:11;100109.00;;;5.00
73937;BMP180;59249;59.736;30.568;2024-02-23T13:31:42;100107.00;;;5.00
73937;BMP180;59249;59.736;30.568;2024-02-23T13:34:11;100097.00;;;5.00
73937;BMP180;59249;59.736;30.568;2024-02-23T13:36:44;100097.00;;;5.00
73937;BMP180;59249;59.736;30.568;2024-02-23T13:39:14;100099.00;;;5.00
73937;BMP180;59249;59.736;30.568;2024-02-23T13:41:43;100107.00;;;5.00
73937;BMP180;59249;59.736;30.568;2024-02-23T13:44:13;100105.00;;;4.90
73937;BMP180;59249;59.736;30.568;2024-02-23T13:46:45;100106.00;;;4.80
73937;BMP180;59249;59.736;30.568;2024-02-23T13:49:15;100097.00;;;4.80
73937;BMP180;59249;59.736;30.568;2024-02-23T13:51:48;100096.00;;;4.80
73937;BMP180;59249;59.736;30.568;2024-02-23T13:54:23;100096.00;;;4.80
73937;BMP180;59249;59.736;30.568;2024-02-23T13:57:02;100092.00;;;4.80
73937;BMP180;59249;59.736;30.568;2024-02-23T13:59:31;100093.00;;;4.70
73937;BMP180;59249;59.736;30.568;2024-02-23T14:02:00;100122.00;;;4.80
73937;BMP180;59249;59.736;30.568;2024-02-23T14:04:31;100107.00;;;4.70
73937;BMP180;59249;59.736;30.568;2024-02-23T14:07:06;100111.00;;;4.70
73937;BMP180;59249;59.736;30.568;2024-02-23T14:09:39;100115.00;;;4.70
73937;BMP180;59249;59.736;30.568;2024-02-23T14:12:25;100121.00;;;4.70
73937;BMP180;59249;59.736;30.568;2024-02-23T14:14:55;100121.00;;;4.80
73937;BMP180;59249;59.736;30.568;2024-02-23T14:17:25;100121.00;;;4.70
73937;BMP180;59249;59.736;30.568;2024-02-23T14:19:54;100120.00;;;4.70
73937;BMP180;59249;59.736;30.568;2024-02-23T14:22:26;100108.00;;;4.70
73937;BMP180;59249;59.736;30.568;2024-02-23T14:24:56;100117.00;;;4.70
73937;BMP180;59249;59.736;30.568;2024-02-23T14:27:34;100122.00;;;4.70